createdAt,value
2023-01-20T06:18:21.751Z,420.10
2023-01-20T06:23:15.131Z,425.30
2023-01-20T06:25:42.235Z,434.83
2023-01-20T06:28:09.665Z,427.05
2023-01-20T06:30:36.603Z,432.25
2023-01-20T06:33:04.218Z,433.20
2023-01-20T06:35:30.879Z,429.40
2023-01-20T06:37:58.701Z,428.20
2023-01-20T06:40:25.386Z,427.15
2023-01-20T06:42:52.059Z,432.27
2023-01-20T06:45:18.805Z,426.67
2023-01-20T06:47:49.290Z,425.02
2023-01-20T06:50:16.966Z,422.42
2023-01-20T06:52:43.622Z,421.27
2023-01-20T06:55:10.375Z,426.40
2023-01-20T06:57:36.995Z,428.03
2023-01-20T07:00:04.149Z,434.30
2023-01-20T07:02:30.846Z,435.05
2023-01-20T07:04:57.540Z,439.88
2023-01-20T07:07:24.244Z,434.48
2023-01-20T07:09:54.638Z,437.42
2023-01-20T07:12:21.416Z,441.80
2023-01-20T07:14:48.107Z,438.63
2023-01-20T07:17:14.751Z,437.35
2023-01-20T07:19:41.383Z,435.53
2023-01-20T07:22:08.178Z,438.10
2023-01-20T07:24:34.829Z,444.58
2023-01-20T07:27:01.549Z,449.60
2023-01-20T07:29:28.283Z,439.02
2023-01-20T07:31:55.080Z,450.20
2023-01-20T07:34:21.884Z,445.45
2023-01-20T07:36:51.058Z,438.95
2023-01-20T07:39:20.062Z,437.73
2023-01-20T07:41:50.089Z,438.25
2023-01-20T07:44:17.202Z,444.00
2023-01-20T07:46:43.915Z,439.73
2023-01-20T07:49:12.309Z,440.35
2023-01-20T07:51:39.789Z,422.20
2023-01-20T07:54:06.738Z,427.67
2023-01-20T07:56:33.530Z,422.20
2023-01-20T07:59:00.313Z,416.10
2023-01-20T08:01:29.953Z,423.02
2023-01-20T08:03:57.519Z,413.58
2023-01-20T08:06:26.020Z,405.05
2023-01-20T08:08:53.717Z,424.23
2023-01-20T08:11:22.306Z,402.33
2023-01-20T08:13:49.524Z,401.10
2023-01-20T08:16:17.714Z,393.60
2023-01-20T08:18:45.320Z,390.90
2023-01-20T08:21:19.480Z,393.17
2023-01-20T08:23:46.106Z,387.57
2023-01-20T08:26:13.001Z,395.10
2023-01-20T08:28:39.899Z,389.40
2023-01-20T08:31:15.579Z,402.63
2023-01-20T08:33:43.598Z,401.33
2023-01-20T08:36:16.199Z,411.75
2023-01-20T08:38:43.837Z,416.20
2023-01-20T08:41:13.475Z,424.10
2023-01-20T08:43:40.225Z,428.02
2023-01-20T08:46:13.652Z,430.88
2023-01-20T08:48:42.058Z,434.33
2023-01-20T08:51:14.030Z,431.67
2023-01-20T08:53:42.015Z,436.00
2023-01-20T08:56:09.857Z,437.65
2023-01-20T08:58:36.933Z,432.52
2023-01-20T09:01:12.326Z,437.83
2023-01-20T09:03:39.950Z,435.33
2023-01-20T09:06:07.658Z,438.90
2023-01-20T09:08:34.575Z,442.37
2023-01-20T09:11:11.613Z,432.33
2023-01-20T09:13:39.141Z,428.55
2023-01-20T09:16:06.290Z,429.25
2023-01-20T09:18:35.063Z,425.60
2023-01-20T09:21:06.550Z,423.05
2023-01-20T09:23:34.989Z,414.23
2023-01-20T09:26:02.767Z,411.75
2023-01-20T09:28:30.369Z,403.98
2023-01-20T09:31:07.430Z,403.67
2023-01-20T09:33:36.423Z,406.13
2023-01-20T09:36:04.685Z,411.10
2023-01-20T09:38:50.290Z,407.85
2023-01-20T09:41:49.367Z,406.55
2023-01-20T09:44:33.045Z,410.33
2023-01-20T09:47:21.012Z,399.63
2023-01-20T09:50:52.412Z,409.52
2023-01-20T09:53:35.679Z,405.92
2023-01-20T09:56:24.577Z,404.85
2023-01-20T09:59:02.323Z,417.95
2023-01-20T10:01:44.167Z,425.93
2023-01-20T10:04:32.830Z,429.15
2023-01-20T10:07:27.638Z,437.10
2023-01-20T10:10:19.801Z,442.98
2023-01-20T10:13:08.494Z,452.98
2023-01-20T10:15:43.643Z,454.50
2023-01-20T10:18:23.485Z,458.83
2023-01-20T10:20:59.086Z,476.10
2023-01-20T10:23:32.355Z,482.50
2023-01-20T10:26:05.045Z,482.75
2023-01-20T10:28:39.044Z,489.30
2023-01-20T10:31:06.017Z,500.05
2023-01-20T10:33:38.520Z,519.55
2023-01-20T10:36:12.407Z,531.90
2023-01-20T10:38:52.524Z,527.65
2023-01-20T10:41:42.910Z,536.75
2023-01-20T10:44:14.427Z,520.53
2023-01-20T10:47:03.104Z,501.08
2023-01-20T10:49:45.661Z,497.30
2023-01-20T10:52:30.935Z,500.85
2023-01-20T10:55:35.755Z,499.42
2023-01-20T10:58:12.408Z,507.77
2023-01-20T11:00:41.839Z,513.08
2023-01-20T11:03:15.907Z,522.92
2023-01-20T11:05:43.116Z,532.22
2023-01-20T11:08:20.334Z,513.05
2023-01-20T11:10:49.857Z,507.65
2023-01-20T11:13:17.147Z,515.40
2023-01-20T11:15:54.839Z,501.53
2023-01-20T11:18:27.606Z,495.67
2023-01-20T11:20:57.132Z,491.33
2023-01-20T11:23:49.227Z,478.37
2023-01-20T11:26:32.493Z,471.83
2023-01-20T11:29:11.090Z,468.15
2023-01-20T11:31:43.587Z,464.90
2023-01-20T11:34:24.226Z,470.75
2023-01-20T11:37:04.209Z,472.73
2023-01-20T11:39:36.455Z,467.67
2023-01-20T11:42:22.234Z,452.13
2023-01-20T11:44:51.649Z,457.98
2023-01-20T11:47:27.364Z,438.63
2023-01-20T11:50:09.334Z,441.73
2023-01-20T11:52:45.696Z,432.80
2023-01-20T11:55:19.118Z,435.50
2023-01-20T11:58:01.450Z,438.17
2023-01-20T12:00:44.235Z,432.23
2023-01-20T12:03:10.872Z,427.05
2023-01-20T12:06:17.155Z,429.25
2023-01-20T12:08:51.222Z,423.80
2023-01-20T12:11:38.739Z,429.02
2023-01-20T12:14:28.718Z,440.70
2023-01-20T12:17:20.612Z,427.73
2023-01-20T12:20:09.541Z,433.63
2023-01-20T12:22:53.677Z,441.15
2023-01-20T12:25:46.265Z,444.95
2023-01-20T12:28:40.302Z,444.42
2023-01-20T12:31:10.204Z,451.42
2023-01-20T12:33:45.424Z,453.83
2023-01-20T12:36:24.801Z,467.07
2023-01-20T12:39:09.247Z,486.33
2023-01-20T12:41:57.385Z,496.63
2023-01-20T12:44:36.707Z,539.90
2023-01-20T12:47:17.173Z,559.93
2023-01-20T12:50:00.865Z,579.25
2023-01-20T12:52:46.171Z,571.40
2023-01-20T12:55:25.907Z,576.50
2023-01-20T12:58:11.041Z,578.08
2023-01-20T13:01:00.812Z,574.50
2023-01-20T13:03:59.537Z,576.38
2023-01-20T13:07:04.261Z,578.85
2023-01-20T13:09:41.848Z,578.72
2023-01-20T13:12:36.533Z,575.20
2023-01-20T13:15:28.019Z,558.65
2023-01-20T13:18:15.759Z,555.17
2023-01-20T13:20:45.506Z,539.60
2023-01-20T13:23:22.582Z,513.95
2023-01-20T13:25:50.518Z,514.72
2023-01-20T13:28:19.380Z,502.38
2023-01-20T13:30:50.648Z,502.77
2023-01-20T13:33:39.883Z,498.67
2023-01-20T13:36:15.094Z,497.98
2023-01-20T13:38:42.855Z,491.40
2023-01-20T13:41:10.812Z,500.80
2023-01-20T13:43:47.377Z,490.58
2023-01-20T13:46:19.718Z,494.23
2023-01-20T13:49:11.855Z,491.98
2023-01-20T13:51:38.823Z,503.52
2023-01-20T13:54:28.907Z,497.40
2023-01-20T13:57:24.151Z,503.87
2023-01-20T13:59:51.123Z,495.80
2023-01-20T14:02:21.563Z,498.15
2023-01-20T14:04:49.063Z,495.52
2023-01-20T14:07:22.673Z,497.27
2023-01-20T14:09:56.696Z,492.42
2023-01-20T14:12:23.483Z,499.08
2023-01-20T14:14:52.218Z,495.88
2023-01-20T14:17:21.808Z,493.23
2023-01-20T14:19:53.975Z,488.08
2023-01-20T14:22:29.851Z,481.10
2023-01-20T14:24:57.437Z,485.42
2023-01-20T14:27:37.265Z,485.58
2023-01-20T14:30:19.200Z,482.20
2023-01-20T14:32:46.446Z,484.00
2023-01-20T14:35:30.990Z,477.83
2023-01-20T14:37:59.466Z,485.50
2023-01-20T14:40:31.233Z,492.58
2023-01-20T14:43:03.509Z,489.08
2023-01-20T14:45:32.797Z,495.50
2023-01-20T14:48:02.171Z,495.50
2023-01-20T14:50:29.708Z,487.65
2023-01-20T14:52:56.506Z,486.35
2023-01-20T14:55:34.190Z,476.92
2023-01-20T14:58:07.064Z,476.80
2023-01-20T15:00:35.353Z,476.58
2023-01-20T15:03:11.990Z,473.05
2023-01-20T15:05:42.072Z,467.52
2023-01-20T15:08:11.817Z,471.15
2023-01-20T15:10:39.249Z,477.23
2023-01-20T15:13:22.972Z,470.30
2023-01-20T15:15:49.751Z,473.38
2023-01-20T15:18:23.549Z,468.80
2023-01-20T15:21:11.644Z,479.23
2023-01-20T15:23:45.470Z,470.17
2023-01-20T15:26:25.499Z,476.73
2023-01-20T15:28:52.399Z,469.25
2023-01-20T15:31:19.220Z,463.23
2023-01-20T15:33:46.235Z,467.40
2023-01-20T15:36:29.362Z,470.33
2023-01-20T15:38:56.215Z,472.85
2023-01-20T15:41:24.264Z,479.83
2023-01-20T15:43:52.429Z,478.88
2023-01-20T15:46:19.546Z,499.02
2023-01-20T15:48:46.719Z,487.30
2023-01-20T15:51:19.012Z,496.13
2023-01-20T15:53:46.733Z,495.67
2023-01-20T15:56:34.422Z,486.92
2023-01-20T15:59:01.615Z,492.25
2023-01-20T16:01:29.323Z,493.45
2023-01-20T16:03:57.157Z,488.23
2023-01-20T16:06:29.530Z,486.67
2023-01-20T16:08:56.435Z,487.70
2023-01-20T16:11:23.245Z,489.77
2023-01-20T16:13:50.078Z,480.70
2023-01-20T16:16:22.129Z,477.63
2023-01-20T16:18:49.735Z,473.48
2023-01-20T16:21:19.556Z,472.60
2023-01-20T16:23:46.254Z,466.70
2023-01-20T16:26:19.161Z,470.38
2023-01-20T16:28:45.909Z,464.58
2023-01-20T16:31:13.247Z,466.85
2023-01-20T16:33:40.015Z,455.00
2023-01-20T16:36:10.835Z,455.92
2023-01-20T16:38:37.946Z,456.58
2023-01-20T16:41:11.749Z,453.23
2023-01-20T16:43:41.716Z,451.13
2023-01-20T16:46:17.082Z,457.55
2023-01-20T16:48:44.047Z,449.33
2023-01-20T16:51:16.026Z,452.52
2023-01-20T16:53:42.878Z,448.65
2023-01-20T16:56:14.952Z,447.30
2023-01-20T16:58:42.314Z,448.33
2023-01-20T17:01:12.096Z,450.73
2023-01-20T17:03:39.699Z,445.50
2023-01-20T17:06:17.332Z,442.70
2023-01-20T17:08:45.713Z,444.30
2023-01-20T17:11:24.093Z,440.52
2023-01-20T17:13:51.510Z,439.05
2023-01-20T17:16:19.619Z,432.73
2023-01-20T17:18:54.324Z,436.45
2023-01-20T17:21:22.819Z,430.35
2023-01-20T17:23:51.199Z,433.88
2023-01-20T17:26:18.206Z,443.05
2023-01-20T17:28:45.086Z,437.17
2023-01-20T17:31:12.046Z,435.40
2023-01-20T17:33:38.805Z,438.42
2023-01-20T17:36:06.507Z,438.13
2023-01-20T17:38:35.731Z,435.40
2023-01-20T17:41:07.013Z,434.60
2023-01-20T17:43:35.599Z,429.60
2023-01-20T17:46:15.396Z,440.65
2023-01-20T17:48:43.021Z,444.52
2023-01-20T17:51:21.419Z,441.35
2023-01-20T17:53:48.374Z,441.98
2023-01-20T17:56:16.680Z,438.23
2023-01-20T17:58:44.760Z,441.15
2023-01-20T18:01:25.541Z,438.90
2023-01-20T18:03:54.945Z,440.45
2023-01-20T18:06:24.147Z,434.80
2023-01-20T18:08:53.390Z,427.50
2023-01-20T18:11:22.831Z,420.50
2023-01-20T18:13:51.240Z,409.73
2023-01-20T18:16:20.922Z,410.77
2023-01-20T18:18:49.155Z,400.58
2023-01-20T18:21:23.912Z,404.45
2023-01-20T18:23:51.830Z,405.67
2023-01-20T18:26:21.259Z,401.70
2023-01-20T18:28:48.347Z,407.97
2023-01-20T18:31:18.398Z,402.17
2023-01-20T18:33:48.033Z,403.85
2023-01-20T18:36:23.604Z,398.73
2023-01-20T18:38:55.950Z,401.77
2023-01-20T18:41:23.604Z,411.02
2023-01-20T18:43:50.988Z,396.85
2023-01-20T18:46:18.263Z,401.10
2023-01-20T18:48:46.417Z,402.00
2023-01-20T18:51:15.130Z,401.50
2023-01-20T18:53:43.945Z,402.65
2023-01-20T18:56:13.087Z,407.38
2023-01-20T18:58:47.152Z,405.60
2023-01-20T19:01:16.913Z,401.20
2023-01-20T19:03:45.985Z,397.60
2023-01-20T19:06:15.323Z,403.58
2023-01-20T19:08:44.111Z,403.23
2023-01-20T19:11:14.407Z,415.67
2023-01-20T19:13:41.964Z,413.25
2023-01-20T19:16:10.518Z,421.90
2023-01-20T19:18:37.688Z,414.10
2023-01-20T19:21:06.235Z,420.67
2023-01-20T19:23:33.458Z,433.65
2023-01-20T19:26:06.166Z,429.98
2023-01-20T19:28:33.608Z,436.75
2023-01-20T19:31:05.825Z,434.55
2023-01-20T19:33:33.860Z,443.80
2023-01-20T19:36:01.714Z,427.00
2023-01-20T19:38:28.582Z,431.40
2023-01-20T19:40:55.231Z,434.33
2023-01-20T19:43:22.012Z,436.98
2023-01-20T19:45:48.730Z,436.30
2023-01-20T19:48:15.526Z,437.13
2023-01-20T19:50:42.148Z,432.88
2023-01-20T19:53:08.754Z,432.15
2023-01-20T19:55:35.383Z,431.50
2023-01-20T19:58:02.049Z,432.45
2023-01-20T20:00:28.788Z,427.75
2023-01-20T20:02:55.703Z,426.80
2023-01-20T20:05:22.419Z,422.67
2023-01-20T20:07:51.088Z,426.65
2023-01-20T20:10:18.442Z,422.40
2023-01-20T20:12:45.431Z,418.88
2023-01-20T20:15:12.139Z,416.92
2023-01-20T20:17:38.865Z,416.40
2023-01-20T20:20:05.920Z,414.85
2023-01-20T20:22:32.558Z,400.17
2023-01-20T20:24:59.147Z,404.30
2023-01-20T20:27:25.757Z,411.55
2023-01-20T20:29:54.471Z,411.60
2023-01-20T20:32:21.154Z,409.25
2023-01-20T20:34:47.834Z,407.27
2023-01-20T20:37:14.564Z,401.67
2023-01-20T20:39:41.239Z,401.63
2023-01-20T20:42:07.908Z,403.33
2023-01-20T20:44:34.809Z,398.98
2023-01-20T20:47:01.494Z,396.98
2023-01-20T20:49:28.508Z,403.75
2023-01-20T20:51:55.201Z,400.00
2023-01-20T20:54:21.998Z,400.13
2023-01-20T20:56:49.281Z,406.83
2023-01-20T20:59:15.965Z,408.08
2023-01-20T21:01:42.659Z,402.40
2023-01-20T21:04:09.538Z,397.23
2023-01-20T21:06:36.200Z,396.17
2023-01-20T21:09:02.964Z,404.67
2023-01-20T21:11:29.912Z,398.37
2023-01-20T21:13:56.748Z,398.25
2023-01-20T21:16:24.135Z,398.08
2023-01-20T21:18:52.950Z,397.98
2023-01-20T21:21:20.381Z,405.80
2023-01-20T21:23:54.577Z,394.98
2023-01-20T21:26:22.623Z,402.95
2023-01-20T21:28:49.627Z,396.95
2023-01-20T21:31:19.095Z,393.58
2023-01-20T21:33:46.491Z,392.43
2023-01-20T21:36:13.374Z,394.27
2023-01-20T21:38:46.196Z,393.65
2023-01-20T21:41:14.607Z,400.98
2023-01-20T21:44:02.082Z,403.02
2023-01-20T21:46:30.776Z,394.45
2023-01-20T21:49:15.963Z,392.73
2023-01-20T21:52:01.409Z,390.30
2023-01-20T21:54:30.602Z,391.17
2023-01-20T21:56:57.820Z,386.48
2023-01-20T21:59:24.661Z,377.85
2023-01-20T22:01:51.501Z,369.63
2023-01-20T22:04:18.824Z,365.37
2023-01-20T22:06:45.803Z,361.90
2023-01-20T22:09:12.592Z,367.98
2023-01-20T22:11:41.099Z,367.38
2023-01-20T22:14:09.868Z,375.08
2023-01-20T22:16:36.564Z,375.58
2023-01-20T22:19:03.291Z,370.27
2023-01-20T22:21:30.065Z,368.92
2023-01-20T22:23:56.718Z,369.67
2023-01-20T22:26:23.503Z,369.30
2023-01-20T22:28:50.238Z,376.17
2023-01-20T22:31:23.996Z,368.75
2023-01-20T22:33:55.275Z,364.80
2023-01-20T22:36:23.049Z,362.13
2023-01-20T22:38:51.155Z,362.77
2023-01-20T22:41:18.911Z,364.35
2023-01-20T22:43:47.747Z,370.77
2023-01-20T22:46:16.549Z,370.55
2023-01-20T22:48:43.624Z,371.63
2023-01-20T22:51:13.210Z,370.77
2023-01-20T22:53:40.696Z,384.48
2023-01-20T22:56:12.133Z,365.15
2023-01-20T22:58:38.815Z,360.55
2023-01-20T23:01:11.485Z,355.45
2023-01-20T23:03:38.115Z,353.65
2023-01-20T23:06:04.892Z,361.75
2023-01-20T23:08:32.437Z,366.02
2023-01-20T23:11:02.807Z,364.90
2023-01-20T23:13:29.692Z,362.27
2023-01-20T23:15:56.875Z,362.77
2023-01-20T23:18:24.829Z,356.23
2023-01-20T23:20:53.611Z,358.85
2023-01-20T23:23:21.514Z,353.90
2023-01-20T23:25:48.567Z,349.65
2023-01-20T23:28:15.772Z,353.33
2023-01-20T23:30:43.100Z,351.08
2023-01-20T23:33:10.212Z,351.25
2023-01-20T23:35:39.028Z,359.10
2023-01-20T23:38:09.079Z,350.40
2023-01-20T23:40:35.894Z,355.33
2023-01-20T23:43:02.576Z,346.80
2023-01-20T23:45:29.331Z,344.60
2023-01-20T23:47:56.123Z,345.00
2023-01-20T23:50:23.170Z,339.92
2023-01-20T23:52:50.064Z,344.23
2023-01-20T23:55:16.926Z,347.80
2023-01-20T23:57:43.600Z,342.10
